Time;durP1;ratioP1;P1;durP2;ratioP2;P2;SDS_P1;SDS_P2;PMS_P1;PMS_P2;Temp;Humidity;BMP_temperature;BMP_pressure;BME280_temperature;BME280_humidity;BME280_pressure;Samples;Min_cycle;Max_cycle;Signal;HPM_P1;HPM_P2
2024/02/09 00:00:36;;;;;;;182.63;100.57;;;;;;;;;;4968619;28;20034;-47
2024/02/09 00:03:07;;;;;;;189.60;104.60;;;;;;;;;;4980348;28;20035;-48
2024/02/09 00:05:42;;;;;;;190.60;102.28;;;;;;;;;;4971996;28;20109;-48
2024/02/09 00:08:18;;;;;;;194.00;103.32;;;;;;;;;;4973570;28;20055;-48
2024/02/09 00:10:47;;;;;;;191.57;102.53;;;;;;;;;;4968278;28;20182;-47
2024/02/09 00:13:16;;;;;;;186.15;101.32;;;;;;;;;;4955418;28;20129;-50
2024/02/09 00:15:45;;;;;;;190.25;106.95;;;;;;;;;;4973425;28;20648;-49
2024/02/09 00:18:18;;;;;;;188.10;102.70;;;;;;;;;;4973441;28;20034;-48
2024/02/09 00:20:59;;;;;;;187.75;100.30;;;;;;;;;;4973030;28;20539;-49
2024/02/09 00:26:17;;;;;;;184.07;99.25;;;;;;;;;;4973303;28;20030;-49
2024/02/09 00:28:44;;;;;;;187.27;100.53;;;;;;;;;;4972531;28;20129;-48
2024/02/09 00:31:10;;;;;;;185.63;100.23;;;;;;;;;;4973117;28;20033;-48
2024/02/09 00:33:36;;;;;;;186.27;101.63;;;;;;;;;;4973187;28;20614;-49
2024/02/09 00:36:03;;;;;;;185.43;98.03;;;;;;;;;;4971379;28;20034;-52
2024/02/09 00:38:32;;;;;;;187.57;101.67;;;;;;;;;;4972737;28;20034;-47
2024/02/09 00:40:58;;;;;;;193.18;108.97;;;;;;;;;;4970931;28;20066;-48
2024/02/09 00:43:24;;;;;;;191.77;105.32;;;;;;;;;;4972985;28;20606;-49
2024/02/09 00:45:51;;;;;;;192.38;102.95;;;;;;;;;;4972408;28;20480;-49
2024/02/09 00:48:29;;;;;;;188.27;100.50;;;;;;;;;;4971820;28;20514;-47
2024/02/09 00:50:56;;;;;;;190.23;102.40;;;;;;;;;;4972741;28;20635;-48
2024/02/09 00:53:22;;;;;;;195.40;105.13;;;;;;;;;;4972639;28;20543;-48
2024/02/09 00:55:48;;;;;;;185.27;99.35;;;;;;;;;;4972668;28;20042;-49
2024/02/09 00:58:18;;;;;;;186.57;99.57;;;;;;;;;;4972521;28;20027;-48
2024/02/09 01:01:03;;;;;;;183.52;102.38;;;;;;;;;;4972675;28;20718;-48
2024/02/09 01:03:29;;;;;;;184.82;100.78;;;;;;;;;;4972540;28;20054;-51
2024/02/09 01:06:07;;;;;;;189.15;98.60;;;;;;;;;;4971956;28;20034;-47
2024/02/09 01:08:33;;;;;;;181.45;100.10;;;;;;;;;;4969641;28;20025;-48
2024/02/09 01:10:59;;;;;;;192.18;99.80;;;;;;;;;;4972095;28;20458;-47
2024/02/09 02:46:06;;;;;;;178.90;91.88;;;;;;;;;;4974802;28;20031;-48
2024/02/09 03:05:33;;;;;;;200.68;97.25;;;;;;;;;;4974602;28;20039;-51
2024/02/09 03:08:00;;;;;;;183.52;97.47;;;;;;;;;;4974192;28;20369;-47
2024/02/09 03:10:26;;;;;;;188.63;91.25;;;;;;;;;;4973134;28;20046;-48
2024/02/09 03:12:53;;;;;;;199.90;97.57;;;;;;;;;;4974257;28;20058;-47
2024/02/09 03:15:19;;;;;;;180.10;92.45;;;;;;;;;;4972921;28;20035;-47
2024/02/09 03:17:51;;;;;;;191.32;96.80;;;;;;;;;;4974502;28;20031;-48
2024/02/09 03:20:19;;;;;;;182.95;94.45;;;;;;;;;;4973127;28;20038;-48
2024/02/09 03:22:45;;;;;;;189.80;93.85;;;;;;;;;;4974300;28;20062;-49
2024/02/09 03:25:12;;;;;;;186.00;94.38;;;;;;;;;;4972932;28;20035;-47
2024/02/09 03:27:40;;;;;;;198.00;99.30;;;;;;;;;;4974659;28;20109;-48
2024/02/09 03:30:07;;;;;;;199.73;99.40;;;;;;;;;;4973334;28;20579;-48
2024/02/09 03:32:33;;;;;;;;;;;;;;;;;;4974519;28;20049;-48
2024/02/09 03:35:06;;;;;;;190.48;96.45;;;;;;;;;;4973804;28;19969;-48
2024/02/09 03:37:44;;;;;;;189.40;95.75;;;;;;;;;;4972693;28;20283;-47
2024/02/09 03:40:12;;;;;;;195.10;94.82;;;;;;;;;;4974103;28;20037;-48
2024/02/09 03:42:38;;;;;;;195.27;97.45;;;;;;;;;;4972594;28;20150;-45
2024/02/09 03:45:06;;;;;;;189.75;94.45;;;;;;;;;;4973864;28;20019;-51
2024/02/09 03:47:41;;;;;;;186.73;93.15;;;;;;;;;;4973609;28;20034;-47
2024/02/09 03:50:17;;;;;;;187.23;97.40;;;;;;;;;;4974029;28;20027;-48
2024/02/09 03:52:49;;;;;;;179.95;90.78;;;;;;;;;;4972525;28;20026;-48
2024/02/09 03:55:39;;;;;;;194.48;94.65;;;;;;;;;;4971990;28;20082;-49
2024/02/09 03:58:05;;;;;;;186.82;96.18;;;;;;;;;;4973874;28;20114;-48
2024/02/09 04:00:32;;;;;;;197.15;94.47;;;;;;;;;;4973062;28;20031;-51
2024/02/09 04:02:58;;;;;;;190.45;94.28;;;;;;;;;;4972208;28;20039;-48
2024/02/09 04:05:31;;;;;;;183.23;95.50;;;;;;;;;;4973168;28;20029;-48
2024/02/09 04:08:04;;;;;;;193.30;95.18;;;;;;;;;;4973591;28;20448;-49
2024/02/09 04:10:30;;;;;;;191.57;95.43;;;;;;;;;;4971901;28;20034;-48
2024/02/09 04:12:59;;;;;;;188.20;94.80;;;;;;;;;;4972555;28;20043;-47
2024/02/09 04:15:25;;;;;;;191.68;96.28;;;;;;;;;;4972737;28;20030;-48
2024/02/09 04:17:52;;;;;;;190.63;94.75;;;;;;;;;;4972305;28;20030;-48
2024/02/09 04:20:18;;;;;;;192.40;96.38;;;;;;;;;;4972815;28;20030;-47
2024/02/09 04:22:44;;;;;;;187.27;97.90;;;;;;;;;;4973468;28;20037;-48
2024/02/09 04:25:15;;;;;;;200.00;99.53;;;;;;;;;;4972690;28;20027;-47
2024/02/09 04:27:44;;;;;;;191.95;101.50;;;;;;;;;;4965966;28;20080;-53
2024/02/09 04:30:11;;;;;;;200.68;99.40;;;;;;;;;;4971834;28;20074;-48
2024/02/09 04:32:38;;;;;;;190.35;97.65;;;;;;;;;;4972502;28;20030;-48
2024/02/09 04:37:56;;;;;;;182.73;92.57;;;;;;;;;;4931943;29;20465;-48
2024/02/09 04:40:31;;;;;;;195.45;97.88;;;;;;;;;;4933109;29;20028;-50
2024/02/09 04:43:05;;;;;;;198.93;97.78;;;;;;;;;;4924911;29;20164;-51
2024/02/09 04:45:58;;;;;;;177.07;91.28;;;;;;;;;;4921857;29;20378;-47
2024/02/09 04:48:24;;;;;;;175.95;94.00;;;;;;;;;;4922509;29;20035;-48
2024/02/09 04:50:51;;;;;;;187.13;96.72;;;;;;;;;;4923888;29;20028;-49
2024/02/09 04:53:18;;;;;;;183.10;95.28;;;;;;;;;;4918088;29;20123;-50
2024/02/09 04:55:56;;;;;;;;;;;;;;;;;;4926613;29;20031;-51
2024/02/09 04:58:22;;;;;;;185.07;88.75;;;;;;;;;;4949039;28;19950;-51
2024/02/09 05:00:49;;;;;;;190.40;94.57;;;;;;;;;;4923061;29;20031;-53
2024/02/09 05:03:17;;;;;;;188.70;94.70;;;;;;;;;;4937382;29;20043;-53
2024/02/09 05:05:44;;;;;;;184.95;92.43;;;;;;;;;;4922536;29;20028;-54
2024/02/09 05:08:10;;;;;;;;;;;;;;;;;;4915076;29;20047;-48
2024/02/09 05:10:49;;;;;;;179.18;91.05;;;;;;;;;;4913613;29;20277;-51
2024/02/09 05:13:15;;;;;;;184.57;90.63;;;;;;;;;;4913621;29;20076;-49
2024/02/09 05:15:41;;;;;;;192.43;96.13;;;;;;;;;;4929137;29;20035;-48
2024/02/09 05:18:07;;;;;;;182.80;95.35;;;;;;;;;;4916890;29;20276;-51
2024/02/09 05:20:33;;;;;;;191.38;98.20;;;;;;;;;;4931627;29;20055;-50
2024/02/09 05:23:00;;;;;;;193.45;96.15;;;;;;;;;;4927152;29;20110;-48
2024/02/09 05:25:27;;;;;;;198.30;98.15;;;;;;;;;;4933322;29;20024;-49
2024/02/09 05:27:53;;;;;;;179.05;92.95;;;;;;;;;;4934505;29;20429;-51
2024/02/09 05:30:20;;;;;;;191.70;91.93;;;;;;;;;;4918799;29;20167;-50
2024/02/09 05:32:46;;;;;;;188.50;93.72;;;;;;;;;;4921538;29;20063;-51
2024/02/09 05:35:12;;;;;;;195.47;95.70;;;;;;;;;;4933242;29;20064;-49
2024/02/09 05:37:38;;;;;;;187.52;98.78;;;;;;;;;;4945684;29;20123;-47
2024/02/09 05:40:05;;;;;;;205.88;100.45;;;;;;;;;;4932981;29;20043;-48
2024/02/09 05:42:31;;;;;;;197.63;98.95;;;;;;;;;;4931207;28;20035;-49
2024/02/09 05:45:05;;;;;;;195.27;95.50;;;;;;;;;;4923329;29;20035;-49
2024/02/09 05:47:46;;;;;;;186.45;93.38;;;;;;;;;;4932394;29;20515;-51
2024/02/09 05:50:12;;;;;;;214.13;102.22;;;;;;;;;;4916201;29;20036;-48
2024/02/09 05:52:39;;;;;;;202.50;101.47;;;;;;;;;;4915637;29;20040;-49
2024/02/09 05:55:08;;;;;;;187.32;97.43;;;;;;;;;;4950825;29;20089;-51
2024/02/09 05:57:37;;;;;;;199.35;97.18;;;;;;;;;;4937686;29;20094;-48
2024/02/09 06:00:19;;;;;;;208.77;100.20;;;;;;;;;;4927738;29;20035;-48
2024/02/09 06:02:46;;;;;;;198.70;100.45;;;;;;;;;;4920388;29;20482;-49
2024/02/09 06:05:12;;;;;;;202.60;100.25;;;;;;;;;;4937145;29;20035;-49
2024/02/09 06:07:39;;;;;;;194.80;98.35;;;;;;;;;;4935065;29;20596;-49
2024/02/09 06:10:06;;;;;;;204.25;99.03;;;;;;;;;;4935157;29;20045;-50
2024/02/09 06:12:32;;;;;;;185.20;95.00;;;;;;;;;;4936083;29;20035;-51
2024/02/09 06:15:03;;;;;;;198.70;99.15;;;;;;;;;;4937480;29;20035;-49
2024/02/09 06:18:05;;;;;;;202.73;96.88;;;;;;;;;;4928763;29;20032;-49
2024/02/09 06:20:33;;;;;;;195.20;101.25;;;;;;;;;;4932843;29;20087;-51
2024/02/09 06:22:59;;;;;;;204.63;99.93;;;;;;;;;;4918377;29;20238;-52
2024/02/09 06:25:27;;;;;;;191.77;97.72;;;;;;;;;;4932636;29;20031;-50
2024/02/09 06:27:54;;;;;;;199.10;99.95;;;;;;;;;;4932894;29;20048;-54
2024/02/09 06:30:21;;;;;;;193.35;97.97;;;;;;;;;;4921305;29;20120;-51
2024/02/09 06:32:47;;;;;;;199.68;98.85;;;;;;;;;;4932822;29;20036;-49
2024/02/09 06:35:18;;;;;;;208.93;102.53;;;;;;;;;;4928962;29;20027;-50
2024/02/09 06:37:44;;;;;;;202.02;101.22;;;;;;;;;;4934312;29;20426;-52
2024/02/09 06:40:13;;;;;;;197.15;99.70;;;;;;;;;;4935266;29;20373;-50
2024/02/09 06:42:43;;;;;;;204.00;101.65;;;;;;;;;;4934293;29;20059;-49
2024/02/09 06:45:13;;;;;;;202.43;101.18;;;;;;;;;;4922395;29;20032;-48
2024/02/09 06:47:39;;;;;;;199.88;102.72;;;;;;;;;;4925810;29;20035;-49
2024/02/09 06:50:05;;;;;;;205.70;102.93;;;;;;;;;;4934349;29;20023;-49
2024/02/09 06:52:33;;;;;;;222.85;103.22;;;;;;;;;;4931823;29;20103;-48
2024/02/09 06:55:02;;;;;;;216.38;105.63;;;;;;;;;;4917841;29;20032;-52
2024/02/09 06:57:28;;;;;;;210.20;105.22;;;;;;;;;;4917525;29;20024;-50
2024/02/09 06:59:54;;;;;;;208.15;105.53;;;;;;;;;;4917723;29;20517;-53
2024/02/09 07:02:20;;;;;;;222.55;104.45;;;;;;;;;;4918046;29;20032;-51
2024/02/09 07:04:50;;;;;;;213.38;101.25;;;;;;;;;;4932277;28;20489;-50
2024/02/09 07:07:18;;;;;;;215.00;104.32;;;;;;;;;;4917319;29;20043;-47
2024/02/09 07:10:04;;;;;;;210.85;106.07;;;;;;;;;;4917595;29;20111;-50
2024/02/09 07:12:30;;;;;;;205.90;105.50;;;;;;;;;;4932364;29;20044;-51
2024/02/09 07:14:57;;;;;;;216.05;109.53;;;;;;;;;;4917506;29;20024;-49
2024/02/09 07:17:25;;;;;;;215.40;107.82;;;;;;;;;;4917234;29;20430;-50
2024/02/09 07:19:51;;;;;;;209.25;105.53;;;;;;;;;;4922951;29;20028;-49
2024/02/09 07:22:17;;;;;;;224.93;103.93;;;;;;;;;;4936404;28;20523;-51
2024/02/09 07:24:43;;;;;;;208.77;101.10;;;;;;;;;;4927426;29;20012;-48
2024/02/09 07:27:10;;;;;;;205.95;106.03;;;;;;;;;;4919099;29;20079;-50
2024/02/09 07:29:59;;;;;;;222.55;108.20;;;;;;;;;;4915984;29;20066;-51
2024/02/09 07:32:30;;;;;;;223.70;103.55;;;;;;;;;;4935650;29;20051;-50
2024/02/09 07:34:56;;;;;;;213.48;104.43;;;;;;;;;;4936129;29;20030;-51
2024/02/09 07:37:24;;;;;;;207.15;102.55;;;;;;;;;;4935752;29;20087;-50
2024/02/09 07:39:51;;;;;;;217.95;103.45;;;;;;;;;;4935980;29;20059;-51
2024/02/09 07:42:24;;;;;;;203.25;102.30;;;;;;;;;;4934725;29;20078;-52
2024/02/09 07:44:53;;;;;;;208.63;102.03;;;;;;;;;;4935826;29;20119;-55
2024/02/09 07:47:20;;;;;;;202.38;99.85;;;;;;;;;;4935745;29;20028;-50
2024/02/09 07:49:46;;;;;;;207.55;103.53;;;;;;;;;;4935844;28;20457;-49
2024/02/09 07:52:12;;;;;;;210.57;105.55;;;;;;;;;;4918203;29;20086;-49
2024/02/09 07:54:39;;;;;;;210.55;104.15;;;;;;;;;;4917953;29;20036;-49
2024/02/09 07:57:06;;;;;;;210.25;103.38;;;;;;;;;;4927935;29;20115;-50
2024/02/09 07:59:51;;;;;;;;;;;;;;;;;;4917113;29;20032;-52
2024/02/09 08:02:18;;;;;;;202.80;100.47;;;;;;;;;;4927951;29;19960;-51
2024/02/09 08:04:45;;;;;;;225.38;110.20;;;;;;;;;;4935729;29;20446;-49
2024/02/09 08:07:11;;;;;;;206.30;101.32;;;;;;;;;;4935366;29;20024;-52
2024/02/09 08:09:38;;;;;;;199.87;102.53;;;;;;;;;;4935580;29;20027;-51
2024/02/09 08:12:04;;;;;;;202.85;102.07;;;;;;;;;;4935365;29;20027;-49
2024/02/09 08:14:36;;;;;;;203.60;101.23;;;;;;;;;;4924202;29;20033;-50
2024/02/09 08:17:06;;;;;;;192.85;96.35;;;;;;;;;;4930245;29;20508;-51
2024/02/09 08:19:57;;;;;;;199.43;94.80;;;;;;;;;;4916355;29;20024;-49
2024/02/09 08:22:32;;;;;;;194.25;92.88;;;;;;;;;;4916250;29;20128;-48
2024/02/09 08:25:02;;;;;;;192.95;94.35;;;;;;;;;;4917801;29;20054;-49
2024/02/09 08:27:28;;;;;;;194.88;94.70;;;;;;;;;;4915961;29;20031;-49
2024/02/09 08:29:57;;;;;;;202.02;95.95;;;;;;;;;;4916027;29;20111;-49
2024/02/09 08:32:24;;;;;;;201.95;97.35;;;;;;;;;;4928617;29;20493;-53
2024/02/09 08:35:09;;;;;;;195.07;94.65;;;;;;;;;;4916018;29;20036;-48
2024/02/09 08:37:36;;;;;;;205.57;103.03;;;;;;;;;;4915950;29;20039;-49
2024/02/09 08:40:03;;;;;;;196.95;95.80;;;;;;;;;;4916137;29;20036;-50
2024/02/09 08:42:29;;;;;;;204.50;98.07;;;;;;;;;;4916008;29;20040;-53
2024/02/09 08:44:56;;;;;;;202.38;99.20;;;;;;;;;;4915893;29;20028;-50
2024/02/09 08:47:22;;;;;;;199.50;99.45;;;;;;;;;;4915595;29;20599;-49
2024/02/09 08:49:49;;;;;;;193.63;96.10;;;;;;;;;;4915875;29;20186;-52
2024/02/09 08:52:17;;;;;;;188.52;90.93;;;;;;;;;;4915788;29;20043;-49
2024/02/09 08:54:46;;;;;;;198.93;94.65;;;;;;;;;;4915759;29;20417;-49
2024/02/09 08:57:22;;;;;;;189.32;91.32;;;;;;;;;;4915726;29;20039;-51
2024/02/09 08:59:49;;;;;;;184.48;87.78;;;;;;;;;;4914394;29;20036;-48
2024/02/09 09:02:15;;;;;;;;;;;;;;;;;;4916061;29;20024;-50
2024/02/09 09:04:41;;;;;;;187.05;91.50;;;;;;;;;;4918187;29;19918;-49
2024/02/09 09:07:07;;;;;;;193.00;91.57;;;;;;;;;;4938911;28;20077;-48
2024/02/09 09:09:39;;;;;;;192.67;90.53;;;;;;;;;;4915666;29;20032;-51
2024/02/09 09:12:14;;;;;;;181.77;88.05;;;;;;;;;;4915570;29;20040;-49
2024/02/09 09:14:42;;;;;;;185.55;88.07;;;;;;;;;;4923348;29;20580;-47
2024/02/09 09:17:14;;;;;;;188.38;88.07;;;;;;;;;;4915092;29;20040;-49
2024/02/09 09:19:41;;;;;;;173.07;84.45;;;;;;;;;;4930980;29;20428;-51
2024/02/09 09:22:08;;;;;;;182.70;87.95;;;;;;;;;;4931777;29;20115;-51
2024/02/09 09:24:34;;;;;;;183.75;85.85;;;;;;;;;;4933144;29;20032;-52
2024/02/09 09:27:00;;;;;;;170.82;85.75;;;;;;;;;;4934279;29;20115;-49
2024/02/09 09:29:39;;;;;;;176.07;82.43;;;;;;;;;;4937814;29;20039;-49
2024/02/09 09:32:10;;;;;;;176.30;83.70;;;;;;;;;;4938305;29;20027;-50
2024/02/09 09:34:37;;;;;;;173.30;82.00;;;;;;;;;;4938343;29;20106;-52
2024/02/09 09:37:09;;;;;;;;;;;;;;;;;;4938372;29;20112;-48
2024/02/09 09:39:35;;;;;;;166.50;76.25;;;;;;;;;;4938116;29;19911;-49
2024/02/09 09:42:01;;;;;;;166.88;79.57;;;;;;;;;;4938148;29;20413;-50
2024/02/09 09:44:28;;;;;;;164.50;75.32;;;;;;;;;;4938366;29;20032;-50
2024/02/09 09:46:59;;;;;;;157.07;79.77;;;;;;;;;;4938069;29;20401;-48
2024/02/09 09:49:26;;;;;;;166.27;79.35;;;;;;;;;;4938089;29;20062;-52
2024/02/09 09:52:11;;;;;;;153.07;76.88;;;;;;;;;;4937839;29;20039;-50
2024/02/09 09:54:45;;;;;;;163.55;76.88;;;;;;;;;;4933926;29;20385;-47
2024/02/09 09:57:20;;;;;;;163.52;75.72;;;;;;;;;;4923948;29;20040;-49
2024/02/09 09:59:46;;;;;;;164.85;77.47;;;;;;;;;;4917697;29;20032;-53
2024/02/09 10:02:12;;;;;;;165.27;76.45;;;;;;;;;;4918610;29;20039;-52
2024/02/09 10:04:38;;;;;;;156.88;74.03;;;;;;;;;;4925109;29;20189;-50
2024/02/09 10:07:21;;;;;;;152.73;76.17;;;;;;;;;;4933022;29;20087;-49
2024/02/09 10:09:50;;;;;;;159.68;74.32;;;;;;;;;;4918590;29;20028;-54
2024/02/09 10:12:18;;;;;;;147.55;72.43;;;;;;;;;;4917379;29;20083;-50
2024/02/09 10:14:44;;;;;;;154.50;76.65;;;;;;;;;;4949881;29;20042;-49
2024/02/09 10:17:12;;;;;;;144.33;68.47;;;;;;;;;;4930041;29;20079;-49
2024/02/09 10:19:38;;;;;;;142.52;67.30;;;;;;;;;;4918481;29;20036;-49
2024/02/09 10:22:18;;;;;;;138.20;64.88;;;;;;;;;;4918460;29;20036;-48
2024/02/09 10:24:44;;;;;;;134.57;65.68;;;;;;;;;;4936650;29;20032;-50
2024/02/09 10:27:14;;;;;;;128.40;63.75;;;;;;;;;;4916086;29;20482;-50
2024/02/09 10:29:44;;;;;;;117.97;63.00;;;;;;;;;;4913825;29;20029;-51
2024/02/09 10:32:10;;;;;;;127.38;62.85;;;;;;;;;;4919280;29;20464;-50
2024/02/09 10:34:36;;;;;;;126.35;62.70;;;;;;;;;;4921979;29;20036;-51
2024/02/09 10:37:03;;;;;;;134.40;66.53;;;;;;;;;;4986811;22;20445;-49
2024/02/09 10:39:30;;;;;;;124.75;63.75;;;;;;;;;;4994083;28;20018;-47
2024/02/09 10:42:02;;;;;;;123.72;58.65;;;;;;;;;;4994862;28;20069;-47
2024/02/09 10:44:31;;;;;;;109.25;58.08;;;;;;;;;;4978540;28;20019;-47
2024/02/09 10:46:58;;;;;;;119.28;58.97;;;;;;;;;;4972413;28;20038;-49
2024/02/09 10:49:25;;;;;;;111.97;59.75;;;;;;;;;;4994476;28;20033;-47
2024/02/09 10:51:52;;;;;;;113.57;56.22;;;;;;;;;;4993886;28;20058;-51
2024/02/09 10:54:24;;;;;;;123.18;61.78;;;;;;;;;;4992782;28;20112;-47
2024/02/09 10:56:51;;;;;;;115.38;60.45;;;;;;;;;;4993852;28;20034;-47
2024/02/09 10:59:22;;;;;;;;;;;;;;;;;;4995124;28;20110;-51
2024/02/09 11:01:58;;;;;;;118.68;56.08;;;;;;;;;;4994525;28;19914;-48
2024/02/09 11:04:25;;;;;;;97.93;54.17;;;;;;;;;;4992334;28;20538;-48
2024/02/09 11:06:52;;;;;;;110.55;57.03;;;;;;;;;;4988036;28;20380;-47
2024/02/09 11:09:19;;;;;;;108.25;53.42;;;;;;;;;;4994354;28;20105;-48
2024/02/09 11:11:47;;;;;;;99.07;51.83;;;;;;;;;;4989595;28;20499;-52
2024/02/09 11:14:15;;;;;;;103.35;55.70;;;;;;;;;;4995900;28;20029;-49
2024/02/09 11:16:47;;;;;;;108.47;56.47;;;;;;;;;;4994573;28;20026;-47
2024/02/09 11:19:19;;;;;;;104.82;53.83;;;;;;;;;;5003965;28;20495;-50
2024/02/09 11:21:46;;;;;;;96.90;51.05;;;;;;;;;;4985027;28;20065;-47
2024/02/09 11:24:16;;;;;;;102.10;49.92;;;;;;;;;;4978707;28;20276;-47
2024/02/09 11:26:46;;;;;;;96.03;51.30;;;;;;;;;;4991237;28;20031;-48
2024/02/09 11:29:12;;;;;;;95.32;48.95;;;;;;;;;;4994171;28;20085;-48
2024/02/09 11:31:40;;;;;;;108.85;52.88;;;;;;;;;;4993814;28;20125;-48
2024/02/09 11:34:06;;;;;;;108.53;59.92;;;;;;;;;;4992307;28;20030;-50
2024/02/09 11:36:33;;;;;;;100.87;49.67;;;;;;;;;;4992429;28;20030;-46
2024/02/09 11:38:59;;;;;;;100.35;50.35;;;;;;;;;;4991798;28;20116;-47
2024/02/09 11:41:28;;;;;;;88.30;48.00;;;;;;;;;;4995354;28;20030;-48
2024/02/09 11:43:54;;;;;;;98.40;50.88;;;;;;;;;;4992056;28;20136;-50
2024/02/09 11:46:21;;;;;;;95.47;50.08;;;;;;;;;;4989659;28;20033;-49
2024/02/09 11:48:49;;;;;;;87.70;48.70;;;;;;;;;;4987311;28;20117;-48
2024/02/09 11:51:21;;;;;;;92.65;49.13;;;;;;;;;;4984585;28;20041;-49
2024/02/09 11:53:51;;;;;;;94.40;50.33;;;;;;;;;;4979457;28;20042;-48
2024/02/09 11:56:20;;;;;;;84.20;46.35;;;;;;;;;;4985283;28;20121;-48
2024/02/09 11:58:49;;;;;;;89.85;48.70;;;;;;;;;;4980409;28;20566;-48
2024/02/09 12:01:17;;;;;;;84.80;46.92;;;;;;;;;;4983246;28;20034;-50
2024/02/09 12:03:43;;;;;;;88.32;45.70;;;;;;;;;;4987763;28;20029;-48
2024/02/09 12:06:09;;;;;;;90.40;44.40;;;;;;;;;;4991778;28;20050;-51
2024/02/09 12:08:35;;;;;;;97.57;50.33;;;;;;;;;;4981893;28;20022;-49
2024/02/09 12:11:02;;;;;;;92.97;47.92;;;;;;;;;;4991418;28;20030;-47
2024/02/09 12:13:29;;;;;;;91.33;47.87;;;;;;;;;;4991958;28;20459;-49
2024/02/09 12:15:57;;;;;;;85.00;48.35;;;;;;;;;;4975563;28;20446;-49
2024/02/09 12:18:23;;;;;;;87.10;47.63;;;;;;;;;;4991847;28;20551;-47
2024/02/09 12:20:50;;;;;;;86.87;47.33;;;;;;;;;;4992735;28;20391;-51
2024/02/09 12:23:16;;;;;;;91.55;47.88;;;;;;;;;;4992424;28;20129;-47
2024/02/09 12:25:42;;;;;;;82.28;46.60;;;;;;;;;;4992398;28;20407;-49
2024/02/09 12:28:09;;;;;;;86.95;47.08;;;;;;;;;;4990503;28;20053;-48
2024/02/09 12:30:36;;;;;;;87.30;46.60;;;;;;;;;;4991854;28;20109;-48
2024/02/09 12:33:04;;;;;;;84.07;44.45;;;;;;;;;;4991993;28;20030;-48
2024/02/09 12:35:31;;;;;;;90.03;45.47;;;;;;;;;;4990617;28;20026;-47
2024/02/09 12:37:57;;;;;;;85.05;46.78;;;;;;;;;;4990961;28;20117;-49
2024/02/09 12:40:24;;;;;;;78.00;45.50;;;;;;;;;;5004247;28;20041;-48
2024/02/09 12:42:53;;;;;;;89.93;47.78;;;;;;;;;;4982462;28;20115;-50
2024/02/09 12:45:25;;;;;;;86.82;46.28;;;;;;;;;;4991127;28;20034;-50
2024/02/09 12:47:51;;;;;;;87.95;46.13;;;;;;;;;;4981733;28;20030;-51
2024/02/09 12:50:20;;;;;;;89.55;45.67;;;;;;;;;;4979434;28;20113;-49
2024/02/09 12:52:49;;;;;;;87.32;45.95;;;;;;;;;;4974400;28;20118;-48
2024/02/09 12:55:18;;;;;;;77.25;43.83;;;;;;;;;;4987897;28;20427;-47
2024/02/09 12:57:44;;;;;;;82.70;45.28;;;;;;;;;;4988000;28;20027;-48
2024/02/09 13:00:12;;;;;;;75.72;43.13;;;;;;;;;;4991618;28;20026;-48
2024/02/09 13:02:38;;;;;;;;;;;;;;;;;;4992030;28;20438;-47
2024/02/09 13:05:04;;;;;;;88.97;44.47;;;;;;;;;;4982710;28;19910;-48
2024/02/09 13:07:30;;;;;;;77.60;42.97;;;;;;;;;;4989637;28;20186;-47
2024/02/09 13:09:57;;;;;;;77.13;43.23;;;;;;;;;;4991605;28;20062;-47
2024/02/09 13:12:23;;;;;;;86.87;44.97;;;;;;;;;;4989329;28;20026;-47
2024/02/09 13:14:49;;;;;;;78.55;42.65;;;;;;;;;;4989589;28;20335;-48
2024/02/09 13:17:16;;;;;;;80.72;43.65;;;;;;;;;;4985527;28;20101;-48
2024/02/09 13:19:42;;;;;;;73.75;42.53;;;;;;;;;;4988601;28;20034;-47
2024/02/09 13:22:08;;;;;;;79.22;42.08;;;;;;;;;;4981037;28;20478;-48
2024/02/09 13:24:42;;;;;;;78.63;42.13;;;;;;;;;;4990916;28;20030;-47
2024/02/09 13:27:12;;;;;;;85.90;44.05;;;;;;;;;;4985979;28;20471;-48
2024/02/09 13:29:42;;;;;;;81.47;41.55;;;;;;;;;;4989351;28;20019;-46
2024/02/09 13:32:12;;;;;;;80.70;42.53;;;;;;;;;;4987896;28;20042;-47
2024/02/09 13:34:38;;;;;;;87.47;43.35;;;;;;;;;;4990482;28;20037;-47
2024/02/09 13:37:04;;;;;;;78.87;42.97;;;;;;;;;;4990732;28;20394;-47
2024/02/09 13:39:30;;;;;;;82.53;43.50;;;;;;;;;;4991762;28;20037;-47
2024/02/09 13:41:57;;;;;;;82.45;43.67;;;;;;;;;;4974184;28;20073;-47
2024/02/09 13:44:23;;;;;;;105.63;55.03;;;;;;;;;;4992117;28;20105;-49
2024/02/09 13:46:51;;;;;;;84.35;46.45;;;;;;;;;;4990744;28;20140;-50
2024/02/09 13:49:17;;;;;;;79.72;44.50;;;;;;;;;;4989969;28;20117;-48
2024/02/09 13:51:44;;;;;;;77.68;41.40;;;;;;;;;;4991835;28;20038;-48
2024/02/09 13:54:10;;;;;;;;;;;;;;;;;;5002594;28;20402;-48
2024/02/09 13:56:39;;;;;;;78.60;41.58;;;;;;;;;;4992085;28;19913;-47
2024/02/09 13:59:06;;;;;;;80.68;41.83;;;;;;;;;;4989829;28;20057;-50
2024/02/09 14:01:33;;;;;;;73.40;42.15;;;;;;;;;;4990044;28;20133;-47
2024/02/09 14:04:00;;;;;;;75.80;42.03;;;;;;;;;;4991275;28;20069;-48
2024/02/09 14:06:26;;;;;;;82.25;42.40;;;;;;;;;;4990359;28;20019;-48
2024/02/09 14:08:55;;;;;;;75.78;40.63;;;;;;;;;;4986703;28;20026;-50
2024/02/09 14:11:23;;;;;;;77.40;41.80;;;;;;;;;;4983507;28;20039;-50
2024/02/09 14:13:50;;;;;;;74.57;41.88;;;;;;;;;;4982585;28;20034;-47
2024/02/09 14:16:17;;;;;;;76.70;38.88;;;;;;;;;;4969421;28;20066;-50
2024/02/09 14:18:45;;;;;;;78.37;40.20;;;;;;;;;;4990087;28;20041;-47
2024/02/09 14:21:12;;;;;;;75.40;41.58;;;;;;;;;;4990150;28;20120;-47
2024/02/09 14:23:38;;;;;;;71.70;39.63;;;;;;;;;;4994358;28;20066;-47
2024/02/09 14:26:06;;;;;;;72.43;39.97;;;;;;;;;;4979575;28;20408;-49
2024/02/09 14:28:32;;;;;;;76.25;39.35;;;;;;;;;;4976904;28;20402;-48
2024/02/09 14:31:00;;;;;;;67.72;37.25;;;;;;;;;;4986491;28;20372;-49
2024/02/09 14:33:27;;;;;;;68.78;37.88;;;;;;;;;;4987917;28;20081;-48
2024/02/09 14:35:53;;;;;;;70.03;38.60;;;;;;;;;;4982318;28;20443;-49
2024/02/09 14:38:19;;;;;;;67.77;36.90;;;;;;;;;;4991564;28;20058;-47
2024/02/09 14:40:45;;;;;;;72.20;36.63;;;;;;;;;;4989992;28;20077;-47
2024/02/09 14:43:14;;;;;;;63.58;36.17;;;;;;;;;;4990404;28;20055;-47
2024/02/09 14:45:40;;;;;;;59.97;35.85;;;;;;;;;;4984322;28;20027;-50
2024/02/09 14:48:06;;;;;;;70.68;37.08;;;;;;;;;;4994103;28;20026;-47
2024/02/09 14:50:33;;;;;;;70.70;36.00;;;;;;;;;;4987101;28;20396;-48
2024/02/09 14:53:00;;;;;;;65.13;35.80;;;;;;;;;;4989047;28;20340;-50
2024/02/09 14:55:28;;;;;;;65.75;35.30;;;;;;;;;;4987861;28;20038;-46
2024/02/09 14:58:01;;;;;;;68.45;34.20;;;;;;;;;;4981408;28;20031;-47
2024/02/09 15:00:29;;;;;;;60.65;35.03;;;;;;;;;;4990253;28;20039;-48
2024/02/09 15:02:56;;;;;;;61.88;35.03;;;;;;;;;;4989894;28;20027;-50
2024/02/09 15:05:23;;;;;;;62.83;33.35;;;;;;;;;;4992749;28;20031;-47
2024/02/09 15:07:49;;;;;;;58.20;32.22;;;;;;;;;;4994290;28;20030;-48
2024/02/09 15:10:15;;;;;;;61.08;34.63;;;;;;;;;;4992788;28;20375;-48
2024/02/09 15:12:41;;;;;;;57.45;33.85;;;;;;;;;;4982474;28;20117;-48
2024/02/09 15:15:08;;;;;;;64.32;33.50;;;;;;;;;;4984749;28;20029;-49
2024/02/09 15:17:35;;;;;;;63.38;33.40;;;;;;;;;;4993123;28;20400;-48
2024/02/09 15:20:02;;;;;;;59.20;34.03;;;;;;;;;;4994465;28;20026;-49
2024/02/09 15:22:29;;;;;;;53.63;31.95;;;;;;;;;;4988367;28;20022;-48
2024/02/09 15:24:58;;;;;;;56.67;30.58;;;;;;;;;;4994200;28;20042;-48
2024/02/09 15:27:24;;;;;;;55.70;29.85;;;;;;;;;;4992736;28;20061;-48
2024/02/09 15:29:52;;;;;;;61.00;33.75;;;;;;;;;;4994171;28;20084;-47
2024/02/09 15:32:19;;;;;;;64.63;33.65;;;;;;;;;;4994084;28;20046;-48
2024/02/09 15:34:45;;;;;;;56.83;29.85;;;;;;;;;;4992812;28;20089;-47
2024/02/09 15:37:11;;;;;;;61.50;34.20;;;;;;;;;;4993836;28;20034;-47
2024/02/09 15:39:38;;;;;;;60.60;34.15;;;;;;;;;;4994095;28;20483;-47
2024/02/09 15:42:05;;;;;;;57.42;33.05;;;;;;;;;;4993883;28;20034;-47
2024/02/09 15:44:31;;;;;;;59.13;34.30;;;;;;;;;;4993781;28;20046;-47
2024/02/09 15:46:58;;;;;;;61.60;33.08;;;;;;;;;;4993408;28;20653;-49
2024/02/09 15:49:25;;;;;;;65.22;33.05;;;;;;;;;;4993689;28;20082;-47
2024/02/09 15:51:55;;;;;;;60.55;34.17;;;;;;;;;;4993716;28;20041;-48
2024/02/09 15:54:22;;;;;;;59.03;33.28;;;;;;;;;;4993696;28;20499;-48
2024/02/09 15:56:49;;;;;;;62.70;34.70;;;;;;;;;;4992149;28;20073;-47
2024/02/09 15:59:15;;;;;;;63.45;35.58;;;;;;;;;;4992224;28;20057;-47
2024/02/09 16:01:43;;;;;;;64.70;34.38;;;;;;;;;;4993515;28;20402;-47
2024/02/09 16:04:10;;;;;;;63.00;34.15;;;;;;;;;;4993629;28;20278;-50
2024/02/09 16:06:36;;;;;;;72.40;34.35;;;;;;;;;;4993272;28;20492;-47
2024/02/09 16:09:02;;;;;;;69.40;33.50;;;;;;;;;;4993389;28;20030;-47
2024/02/09 16:11:33;;;;;;;59.08;34.38;;;;;;;;;;4993337;28;20035;-49